Time;durP1;ratioP1;P1;durP2;ratioP2;P2;SDS_P1;SDS_P2;PMS_P1;PMS_P2;Temp;Humidity;BMP_temperature;BMP_pressure;BME280_temperature;BME280_humidity;BME280_pressure;Samples;Min_cycle;Max_cycle;Signal;HPM_P1;HPM_P2
2021/03/06 00:01:16;;;;;;;;;;;23.50;35.00;;;;;;1596219;73;1942;-57
2021/03/06 00:03:18;;;;;;;;;;;23.50;35.00;;;;;;1598511;73;739;-57
2021/03/06 00:05:21;;;;;;;;;;;23.50;35.10;;;;;;1596581;73;784;-59
2021/03/06 00:07:22;;;;;;;;;;;23.50;35.10;;;;;;1600002;73;587;-55
2021/03/06 00:09:24;;;;;;;;;;;23.50;35.10;;;;;;1597004;73;1085;-57
2021/03/06 00:11:26;;;;;;;;;;;23.40;35.00;;;;;;1606106;73;659;-56
2021/03/06 00:13:28;;;;;;;;;;;23.40;35.00;;;;;;1612051;73;749;-55
2021/03/06 00:15:30;;;;;;;;;;;23.50;35.10;;;;;;1612190;73;720;-57
2021/03/06 00:17:32;;;;;;;;;;;23.50;35.00;;;;;;1613486;73;760;-58
2021/03/06 00:19:34;;;;;;;;;;;23.50;34.90;;;;;;1610037;73;1256;-57
2021/03/06 00:21:36;;;;;;;;;;;23.50;34.90;;;;;;1614307;73;1943;-59
2021/03/06 00:23:37;;;;;;;;;;;23.60;35.00;;;;;;1613448;73;674;-57
2021/03/06 00:25:39;;;;;;;;;;;23.60;35.00;;;;;;1612742;73;700;-59
2021/03/06 00:27:41;;;;;;;;;;;23.60;34.90;;;;;;1608606;73;704;-57
2021/03/06 00:29:43;;;;;;;;;;;23.60;35.00;;;;;;1612822;73;1071;-59
2021/03/06 00:31:45;;;;;;;;;;;23.60;34.90;;;;;;1614151;73;672;-58
2021/03/06 00:33:47;;;;;;;;;;;23.60;34.90;;;;;;1611050;73;756;-56
2021/03/06 00:35:49;;;;;;;;;;;23.60;34.80;;;;;;1614559;73;659;-57
2021/03/06 00:37:50;;;;;;;;;;;23.60;34.80;;;;;;1607628;73;740;-57
2021/03/06 00:39:52;;;;;;;;;;;23.60;34.90;;;;;;1608159;73;1079;-59
2021/03/06 00:41:54;;;;;;;;;;;23.70;35.00;;;;;;1614914;73;1935;-57
2021/03/06 00:43:56;;;;;;;;;;;23.60;35.00;;;;;;1606261;73;741;-58
2021/03/06 00:45:58;;;;;;;;;;;23.50;35.00;;;;;;1612738;73;724;-58
2021/03/06 00:48:00;;;;;;;;;;;23.50;35.20;;;;;;1611500;73;739;-59
2021/03/06 00:50:02;;;;;;;;;;;23.40;35.10;;;;;;1613602;73;1094;-58
2021/03/06 00:52:04;;;;;;;;;;;23.50;35.20;;;;;;1613732;73;759;-57
2021/03/06 00:54:06;;;;;;;;;;;23.50;35.10;;;;;;1613500;73;794;-58
2021/03/06 00:56:08;;;;;;;;;;;23.50;35.10;;;;;;1606818;73;907;-57
2021/03/06 00:58:09;;;;;;;;;;;23.60;35.10;;;;;;1608649;73;705;-56
2021/03/06 01:00:12;;;;;;;;;;;23.60;35.00;;;;;;1610620;73;1194;-57
2021/03/06 01:02:14;;;;;;;;;;;23.50;35.10;;;;;;1612069;73;1924;-59
2021/03/06 01:04:16;;;;;;;;;;;23.60;35.00;;;;;;1593995;73;675;-58
2021/03/06 01:06:17;;;;;;;;;;;23.60;35.00;;;;;;1603383;73;799;-56
2021/03/06 01:08:19;;;;;;;;;;;23.60;34.80;;;;;;1595412;73;713;-58
2021/03/06 01:10:22;;;;;;;;;;;23.60;34.80;;;;;;1595479;73;1072;-57
2021/03/06 01:12:24;;;;;;;;;;;23.60;34.80;;;;;;1605708;73;699;-57
2021/03/06 01:14:26;;;;;;;;;;;23.60;34.70;;;;;;1599964;73;770;-57
2021/03/06 01:16:28;;;;;;;;;;;23.60;34.80;;;;;;1604060;73;767;-57
2021/03/06 01:18:30;;;;;;;;;;;23.60;34.80;;;;;;1605065;73;734;-58
2021/03/06 01:20:31;;;;;;;;;;;23.60;34.70;;;;;;1604999;73;1062;-58
2021/03/06 01:22:33;;;;;;;;;;;23.60;34.80;;;;;;1609387;73;1942;-58
2021/03/06 01:24:36;;;;;;;;;;;23.60;34.90;;;;;;1597624;73;725;-57
2021/03/06 01:26:38;;;;;;;;;;;23.60;34.90;;;;;;1603511;73;671;-58
2021/03/06 01:28:40;;;;;;;;;;;23.60;34.70;;;;;;1608582;73;785;-58
2021/03/06 01:30:42;;;;;;;;;;;23.60;34.80;;;;;;1604713;73;1060;-57
2021/03/06 01:32:44;;;;;;;;;;;23.60;34.70;;;;;;1598392;72;759;-58
2021/03/06 01:34:45;;;;;;;;;;;23.60;35.00;;;;;;1588149;73;926;-57
2021/03/06 01:36:47;;;;;;;;;;;23.50;35.20;;;;;;1601717;73;795;-56
2021/03/06 01:38:49;;;;;;;;;;;23.40;35.10;;;;;;1604432;73;790;-58
2021/03/06 01:40:51;;;;;;;;;;;23.50;35.20;;;;;;1610835;73;1077;-59
2021/03/06 01:42:53;;;;;;;;;;;23.40;35.20;;;;;;1609666;73;1930;-59
2021/03/06 01:44:55;;;;;;;;;;;23.40;35.20;;;;;;1604185;73;811;-58
2021/03/06 01:46:58;;;;;;;;;;;23.40;35.20;;;;;;1608491;73;675;-58
2021/03/06 01:49:01;;;;;;;;;;;23.50;35.30;;;;;;1590657;73;1126;-57
2021/03/06 01:51:03;;;;;;;;;;;23.40;35.20;;;;;;1608197;73;838;-58
2021/03/06 01:53:06;;;;;;;;;;;23.40;35.30;;;;;;1601805;73;764;-57
2021/03/06 01:55:08;;;;;;;;;;;23.50;35.30;;;;;;1608416;73;805;-58
2021/03/06 01:57:10;;;;;;;;;;;23.40;35.30;;;;;;1601772;73;736;-57
2021/03/06 01:59:12;;;;;;;;;;;23.40;35.30;;;;;;1612786;73;1122;-58
2021/03/06 02:01:14;;;;;;;;;;;23.50;35.40;;;;;;1594484;73;813;-59
2021/03/06 02:03:15;;;;;;;;;;;23.50;35.30;;;;;;1611682;73;1940;-58
2021/03/06 02:05:18;;;;;;;;;;;23.40;35.00;;;;;;1613813;73;784;-58
2021/03/06 02:07:19;;;;;;;;;;;23.40;35.20;;;;;;1596933;73;752;-57
2021/03/06 02:09:22;;;;;;;;;;;23.40;35.20;;;;;;1615568;73;1055;-57
2021/03/06 02:11:26;;;;;;;;;;;23.40;35.20;;;;;;1588846;73;772;-56
2021/03/06 02:13:47;;;;;;;;;;;23.50;35.30;;;;;;1602241;73;1810;-57
2021/03/06 02:15:54;;;;;;;;;;;23.50;35.20;;;;;;1583334;73;726;-58
2021/03/06 02:18:03;;;;;;;;;;;23.40;35.20;;;;;;1588223;73;820;-58
2021/03/06 02:20:12;;;;;;;;;;;23.40;35.20;;;;;;1601928;73;1189;-57
2021/03/06 02:22:22;;;;;;;;;;;23.40;35.20;;;;;;1601743;73;1935;-58
2021/03/06 02:24:35;;;;;;;;;;;23.30;35.20;;;;;;1593265;73;1891;-58
2021/03/06 02:26:39;;;;;;;;;;;23.40;35.50;;;;;;1589687;73;1895;-58
2021/03/06 02:28:42;;;;;;;;;;;23.30;35.50;;;;;;1600344;73;813;-57
2021/03/06 02:30:44;;;;;;;;;;;23.30;35.60;;;;;;1610814;73;1129;-58
2021/03/06 02:32:46;;;;;;;;;;;23.30;35.70;;;;;;1600196;73;755;-57
2021/03/06 02:34:50;;;;;;;;;;;23.40;35.70;;;;;;1597016;73;798;-57
2021/03/06 02:36:53;;;;;;;;;;;23.40;35.50;;;;;;1607630;73;697;-59
2021/03/06 02:38:55;;;;;;;;;;;23.30;35.50;;;;;;1613200;73;672;-58
2021/03/06 02:40:57;;;;;;;;;;;23.30;35.60;;;;;;1590192;73;1123;-58
2021/03/06 02:42:59;;;;;;;;;;;23.20;35.50;;;;;;1602222;73;1936;-57
2021/03/06 02:45:01;;;;;;;;;;;23.20;35.50;;;;;;1615246;73;790;-56
2021/03/06 02:47:03;;;;;;;;;;;23.40;35.50;;;;;;1598483;73;732;-57
2021/03/06 02:49:05;;;;;;;;;;;23.50;35.40;;;;;;1603518;73;1140;-57
2021/03/06 02:51:07;;;;;;;;;;;23.50;35.40;;;;;;1608185;73;709;-57
2021/03/06 02:53:09;;;;;;;;;;;23.40;35.10;;;;;;1599118;72;718;-58
2021/03/06 02:55:11;;;;;;;;;;;23.50;35.10;;;;;;1611582;73;767;-56
2021/03/06 02:57:15;;;;;;;;;;;23.40;35.00;;;;;;1587082;73;728;-56
2021/03/06 02:59:35;;;;;;;;;;;23.50;35.10;;;;;;1593969;73;1108;-58
2021/03/06 03:01:47;;;;;;;;;;;23.50;35.00;;;;;;1595357;73;780;-56
2021/03/06 03:03:58;;;;;;;;;;;23.50;35.00;;;;;;1607648;73;1937;-57
2021/03/06 03:06:08;;;;;;;;;;;23.50;35.00;;;;;;1601129;72;722;-59
2021/03/06 03:08:10;;;;;;;;;;;23.40;35.00;;;;;;1598748;73;1656;-58
2021/03/06 03:10:13;;;;;;;;;;;23.40;34.90;;;;;;1607021;73;1127;-57
2021/03/06 03:12:20;;;;;;;;;;;23.50;35.00;;;;;;1599679;73;810;-57
2021/03/06 03:14:23;;;;;;;;;;;23.50;34.90;;;;;;1594964;73;1832;-56
2021/03/06 03:16:29;;;;;;;;;;;23.40;34.70;;;;;;1603538;73;789;-58
2021/03/06 03:18:33;;;;;;;;;;;23.50;34.90;;;;;;1590880;73;811;-58
2021/03/06 03:20:36;;;;;;;;;;;23.50;35.00;;;;;;1599552;73;1092;-58
2021/03/06 03:22:38;;;;;;;;;;;23.50;35.00;;;;;;1606252;73;1935;-59
2021/03/06 03:24:40;;;;;;;;;;;23.50;34.90;;;;;;1601751;73;796;-57
2021/03/06 03:26:41;;;;;;;;;;;23.40;34.80;;;;;;1607603;73;731;-58
2021/03/06 03:28:44;;;;;;;;;;;23.50;35.00;;;;;;1604568;73;735;-59
2021/03/06 03:30:46;;;;;;;;;;;23.40;35.00;;;;;;1597439;73;1138;-58
2021/03/06 03:32:49;;;;;;;;;;;23.40;35.20;;;;;;1605307;73;792;-59
2021/03/06 03:34:51;;;;;;;;;;;23.40;35.30;;;;;;1604925;73;790;-58
2021/03/06 03:36:53;;;;;;;;;;;23.20;35.40;;;;;;1591534;73;730;-58
2021/03/06 03:38:55;;;;;;;;;;;23.20;35.50;;;;;;1603727;73;792;-58
2021/03/06 03:40:57;;;;;;;;;;;23.20;35.60;;;;;;1598932;73;1123;-57
2021/03/06 03:42:59;;;;;;;;;;;23.10;35.70;;;;;;1604892;73;1941;-59
2021/03/06 03:45:00;;;;;;;;;;;23.10;35.80;;;;;;1602769;73;759;-58
2021/03/06 03:47:03;;;;;;;;;;;23.10;36.00;;;;;;1610057;73;765;-60
2021/03/06 03:49:04;;;;;;;;;;;23.10;36.30;;;;;;1609307;73;1029;-59
2021/03/06 03:51:06;;;;;;;;;;;23.10;36.30;;;;;;1604259;72;752;-59
2021/03/06 03:53:09;;;;;;;;;;;23.10;36.30;;;;;;1602505;73;798;-59
2021/03/06 03:55:11;;;;;;;;;;;23.10;36.40;;;;;;1583920;74;1288;-60
2021/03/06 03:57:13;;;;;;;;;;;23.10;36.50;;;;;;1603000;73;730;-59
2021/03/06 03:59:15;;;;;;;;;;;23.10;36.50;;;;;;1612345;73;1130;-59
2021/03/06 04:01:16;;;;;;;;;;;23.10;36.50;;;;;;1603924;73;679;-57
2021/03/06 04:03:18;;;;;;;;;;;23.10;36.30;;;;;;1596796;73;1933;-58
2021/03/06 04:05:20;;;;;;;;;;;23.10;36.30;;;;;;1591050;73;1027;-58
2021/03/06 04:07:22;;;;;;;;;;;23.10;36.20;;;;;;1591255;73;784;-59
2021/03/06 04:09:24;;;;;;;;;;;23.10;36.30;;;;;;1598410;73;1183;-59
2021/03/06 04:11:26;;;;;;;;;;;23.10;36.20;;;;;;1598737;73;781;-59
2021/03/06 04:13:28;;;;;;;;;;;23.10;36.20;;;;;;1590394;73;703;-59
2021/03/06 04:15:29;;;;;;;;;;;23.10;36.20;;;;;;1612728;73;744;-58
2021/03/06 04:17:31;;;;;;;;;;;23.10;36.20;;;;;;1612538;73;734;-58
2021/03/06 04:19:33;;;;;;;;;;;23.10;36.20;;;;;;1595124;73;1106;-57
2021/03/06 04:21:35;;;;;;;;;;;23.10;36.30;;;;;;1603887;73;776;-58
2021/03/06 04:23:37;;;;;;;;;;;23.10;36.10;;;;;;1595747;73;1949;-60
2021/03/06 04:25:39;;;;;;;;;;;23.10;36.20;;;;;;1614825;73;736;-59
2021/03/06 04:27:41;;;;;;;;;;;23.20;36.00;;;;;;1590514;73;805;-58
2021/03/06 04:29:43;;;;;;;;;;;23.20;36.20;;;;;;1616080;73;1190;-58
2021/03/06 04:31:44;;;;;;;;;;;23.20;36.10;;;;;;1594434;73;754;-59
2021/03/06 04:33:46;;;;;;;;;;;23.20;36.00;;;;;;1611894;73;753;-58
2021/03/06 04:35:48;;;;;;;;;;;23.10;36.10;;;;;;1614095;73;664;-57
2021/03/06 04:37:50;;;;;;;;;;;23.20;36.10;;;;;;1613196;73;758;-59
2021/03/06 04:39:52;;;;;;;;;;;23.20;36.00;;;;;;1585707;73;1132;-58
2021/03/06 04:41:54;;;;;;;;;;;23.20;36.00;;;;;;1595886;73;787;-58
2021/03/06 04:43:56;;;;;;;;;;;23.10;36.00;;;;;;1589606;73;1949;-60
2021/03/06 04:45:57;;;;;;;;;;;23.20;36.00;;;;;;1607245;73;736;-60
2021/03/06 04:47:59;;;;;;;;;;;23.20;35.80;;;;;;1606493;73;762;-59
2021/03/06 04:50:01;;;;;;;;;;;23.20;35.80;;;;;;1591731;73;1166;-59
2021/03/06 04:52:03;;;;;;;;;;;23.20;35.70;;;;;;1605284;72;769;-58
2021/03/06 04:54:05;;;;;;;;;;;23.20;35.80;;;;;;1599903;73;767;-60
2021/03/06 04:56:07;;;;;;;;;;;23.30;35.70;;;;;;1601655;73;884;-59
2021/03/06 04:58:09;;;;;;;;;;;23.30;35.70;;;;;;1601192;73;758;-60
2021/03/06 05:00:11;;;;;;;;;;;23.30;35.70;;;;;;1600900;73;1079;-60
2021/03/06 05:02:13;;;;;;;;;;;23.20;35.60;;;;;;1613556;73;734;-58
2021/03/06 05:04:15;;;;;;;;;;;23.30;35.60;;;;;;1602681;73;1953;-58
2021/03/06 05:06:17;;;;;;;;;;;23.30;35.50;;;;;;1595371;73;726;-60
2021/03/06 05:08:18;;;;;;;;;;;23.30;35.50;;;;;;1592085;73;790;-60
2021/03/06 05:10:23;;;;;;;;;;;23.30;35.50;;;;;;1601052;73;1162;-58
2021/03/06 05:12:24;;;;;;;;;;;23.40;35.50;;;;;;1608128;73;1672;-60
2021/03/06 05:14:26;;;;;;;;;;;23.30;35.50;;;;;;1603320;73;795;-60
2021/03/06 05:16:28;;;;;;;;;;;23.30;35.50;;;;;;1600978;73;772;-59
2021/03/06 05:18:30;;;;;;;;;;;23.30;35.70;;;;;;1594881;73;752;-57
2021/03/06 05:20:32;;;;;;;;;;;23.30;35.60;;;;;;1592290;73;1153;-58
2021/03/06 05:22:34;;;;;;;;;;;23.30;35.70;;;;;;1606695;73;772;-60
2021/03/06 05:24:35;;;;;;;;;;;23.40;35.70;;;;;;1610447;73;1920;-60
2021/03/06 05:26:37;;;;;;;;;;;23.30;35.90;;;;;;1596157;73;746;-59
2021/03/06 05:28:39;;;;;;;;;;;23.30;35.70;;;;;;1590450;73;760;-59
2021/03/06 05:30:41;;;;;;;;;;;23.30;35.80;;;;;;1593177;73;1150;-58
2021/03/06 05:32:43;;;;;;;;;;;23.40;35.80;;;;;;1599103;73;783;-59
2021/03/06 05:34:45;;;;;;;;;;;23.40;36.00;;;;;;1596825;73;765;-60
2021/03/06 05:36:47;;;;;;;;;;;23.40;35.90;;;;;;1595598;73;760;-59
2021/03/06 05:38:49;;;;;;;;;;;23.40;35.90;;;;;;1589853;73;837;-58
2021/03/06 05:40:50;;;;;;;;;;;23.40;35.80;;;;;;1594582;73;1101;-60
2021/03/06 05:42:52;;;;;;;;;;;23.40;35.80;;;;;;1606190;73;717;-59
2021/03/06 05:44:54;;;;;;;;;;;23.40;35.90;;;;;;1615764;73;1943;-61
2021/03/06 05:46:57;;;;;;;;;;;23.40;35.70;;;;;;1608470;73;809;-59
2021/03/06 05:48:58;;;;;;;;;;;23.40;35.80;;;;;;1610967;73;1138;-59
2021/03/06 05:51:01;;;;;;;;;;;23.40;35.70;;;;;;1612542;72;812;-60
2021/03/06 05:53:04;;;;;;;;;;;23.40;35.70;;;;;;1612553;73;728;-59
2021/03/06 05:55:06;;;;;;;;;;;23.40;35.70;;;;;;1602943;73;738;-59
2021/03/06 05:57:08;;;;;;;;;;;23.40;35.80;;;;;;1606573;73;681;-59
2021/03/06 05:59:12;;;;;;;;;;;23.40;35.70;;;;;;1585452;74;1126;-58
2021/03/06 06:01:15;;;;;;;;;;;23.40;35.70;;;;;;1595229;73;716;-60
2021/03/06 06:03:17;;;;;;;;;;;23.50;35.70;;;;;;1598416;73;1925;-57
2021/03/06 06:05:19;;;;;;;;;;;23.40;35.50;;;;;;1595101;73;815;-58
2021/03/06 06:07:20;;;;;;;;;;;23.40;35.60;;;;;;1596308;73;770;-58
2021/03/06 06:09:22;;;;;;;;;;;23.50;35.70;;;;;;1603537;73;1083;-59
2021/03/06 06:11:24;;;;;;;;;;;23.40;35.50;;;;;;1608768;73;667;-58
2021/03/06 06:13:26;;;;;;;;;;;23.50;35.60;;;;;;1597227;73;722;-59
2021/03/06 06:15:28;;;;;;;;;;;23.50;35.70;;;;;;1590532;73;763;-58
2021/03/06 06:17:30;;;;;;;;;;;23.50;35.80;;;;;;1608991;73;710;-59
2021/03/06 06:19:33;;;;;;;;;;;23.40;35.60;;;;;;1600981;73;1167;-59
2021/03/06 06:21:39;;;;;;;;;;;23.40;35.70;;;;;;1595077;73;764;-58
2021/03/06 06:23:41;;;;;;;;;;;23.50;35.70;;;;;;1604390;73;1930;-59
2021/03/06 06:25:43;;;;;;;;;;;23.50;36.00;;;;;;1608760;73;800;-59
2021/03/06 06:27:46;;;;;;;;;;;23.50;35.90;;;;;;1606143;73;781;-58
2021/03/06 06:29:49;;;;;;;;;;;23.50;35.70;;;;;;1604150;73;1575;-60
2021/03/06 06:31:54;;;;;;;;;;;23.50;35.60;;;;;;1595946;73;767;-58
2021/03/06 06:33:56;;;;;;;;;;;23.50;35.60;;;;;;1601531;73;757;-60
2021/03/06 06:35:58;;;;;;;;;;;23.50;35.60;;;;;;1598530;73;735;-57
2021/03/06 06:38:06;;;;;;;;;;;23.50;35.70;;;;;;1610984;73;677;-57
2021/03/06 06:40:18;;;;;;;;;;;23.50;35.50;;;;;;1602878;73;1090;-58
2021/03/06 06:42:22;;;;;;;;;;;23.50;35.50;;;;;;1613914;73;802;-57
2021/03/06 06:44:24;;;;;;;;;;;23.50;35.40;;;;;;1603849;73;1941;-58
2021/03/06 06:46:29;;;;;;;;;;;23.50;35.50;;;;;;1592765;73;782;-56
2021/03/06 06:48:31;;;;;;;;;;;23.50;35.50;;;;;;1614754;73;715;-58
2021/03/06 06:50:33;;;;;;;;;;;23.50;35.40;;;;;;1601102;72;1122;-59
2021/03/06 06:52:37;;;;;;;;;;;23.50;35.30;;;;;;1592771;73;825;-59
2021/03/06 06:54:39;;;;;;;;;;;23.60;35.30;;;;;;1603387;73;1876;-58
2021/03/06 06:56:41;;;;;;;;;;;23.50;35.40;;;;;;1605200;73;779;-57
2021/03/06 06:58:43;;;;;;;;;;;23.50;35.30;;;;;;1597679;73;748;-59
2021/03/06 07:00:44;;;;;;;;;;;23.50;35.30;;;;;;1613210;73;1143;-57
2021/03/06 07:02:54;;;;;;;;;;;23.50;35.20;;;;;;1611037;73;748;-59
2021/03/06 07:05:01;;;;;;;;;;;23.50;35.40;;;;;;1608341;73;1905;-59
2021/03/06 07:07:03;;;;;;;;;;;23.50;35.40;;;;;;1609638;73;737;-60
2021/03/06 07:09:08;;;;;;;;;;;23.50;35.50;;;;;;1605962;73;1107;-59
2021/03/06 07:11:12;;;;;;;;;;;23.60;35.40;;;;;;1610696;73;715;-59
2021/03/06 07:13:15;;;;;;;;;;;23.60;35.40;;;;;;1609927;73;1857;-58
2021/03/06 07:15:17;;;;;;;;;;;23.60;35.50;;;;;;1611980;73;784;-58
2021/03/06 07:17:19;;;;;;;;;;;23.60;35.40;;;;;;1607373;73;728;-58
2021/03/06 07:19:21;;;;;;;;;;;23.60;35.40;;;;;;1612971;73;1190;-58
2021/03/06 07:21:22;;;;;;;;;;;23.60;35.60;;;;;;1611822;73;765;-59
2021/03/06 07:23:25;;;;;;;;;;;23.60;35.60;;;;;;1586453;74;810;-57
2021/03/06 07:25:27;;;;;;;;;;;23.60;35.30;;;;;;1610283;73;1941;-58
2021/03/06 07:27:29;;;;;;;;;;;23.60;35.60;;;;;;1614384;73;710;-59
2021/03/06 07:29:31;;;;;;;;;;;23.60;35.50;;;;;;1609861;73;1162;-57
2021/03/06 07:31:33;;;;;;;;;;;23.60;35.70;;;;;;1609255;73;746;-57
2021/03/06 07:33:35;;;;;;;;;;;23.60;35.70;;;;;;1612338;73;767;-58
2021/03/06 07:35:38;;;;;;;;;;;23.70;36.00;;;;;;1612022;73;721;-56
2021/03/06 07:37:40;;;;;;;;;;;23.70;36.00;;;;;;1608510;73;694;-58
2021/03/06 07:39:42;;;;;;;;;;;23.60;35.10;;;;;;1611373;73;1159;-58
2021/03/06 07:41:46;;;;;;;;;;;23.60;34.50;;;;;;1611442;73;676;-58
2021/03/06 07:43:47;;;;;;;;;;;23.60;34.40;;;;;;1610006;73;1948;-55
2021/03/06 07:45:50;;;;;;;;;;;23.60;34.20;;;;;;1612189;73;733;-58
2021/03/06 07:47:53;;;;;;;;;;;23.60;34.20;;;;;;1610584;73;753;-58
2021/03/06 07:49:55;;;;;;;;;;;23.50;33.90;;;;;;1612455;73;1137;-59
2021/03/06 07:51:57;;;;;;;;;;;23.50;33.90;;;;;;1613944;73;751;-58
2021/03/06 07:53:59;;;;;;;;;;;23.50;33.90;;;;;;1612689;73;712;-57
2021/03/06 07:56:02;;;;;;;;;;;23.50;33.70;;;;;;1613119;73;716;-57
2021/03/06 07:58:06;;;;;;;;;;;23.50;33.80;;;;;;1612845;73;1159;-58
2021/03/06 08:00:08;;;;;;;;;;;23.50;33.60;;;;;;1608492;73;1106;-58
2021/03/06 08:02:15;;;;;;;;;;;23.50;33.60;;;;;;1613825;73;794;-58
2021/03/06 08:04:21;;;;;;;;;;;23.50;33.50;;;;;;1587215;73;1929;-58
2021/03/06 08:06:25;;;;;;;;;;;23.40;33.40;;;;;;1603429;73;1816;-56
2021/03/06 08:08:35;;;;;;;;;;;23.40;33.40;;;;;;1610546;73;1850;-58
2021/03/06 08:10:50;;;;;;;;;;;23.40;33.40;;;;;;1608205;73;1161;-58
2021/03/06 08:12:52;;;;;;;;;;;23.40;33.40;;;;;;1538625;73;1253;-58
2021/03/06 08:14:54;;;;;;;;;;;23.40;33.40;;;;;;1606304;73;691;-57
2021/03/06 08:16:56;;;;;;;;;;;23.40;33.40;;;;;;1607211;73;874;-56
2021/03/06 08:19:16;;;;;;;;;;;23.40;33.40;;;;;;1608459;73;715;-55
2021/03/06 08:21:31;;;;;;;;;;;23.30;33.40;;;;;;1608511;73;857;-56
2021/03/06 08:23:33;;;;;;;;;;;23.30;33.40;;;;;;1614899;73;740;-58
2021/03/06 08:25:35;;;;;;;;;;;23.30;33.40;;;;;;1607922;73;1952;-58
2021/03/06 08:27:37;;;;;;;;;;;23.30;33.40;;;;;;1603565;73;793;-58
2021/03/06 08:29:39;;;;;;;;;;;23.50;31.60;;;;;;1614943;73;1194;-58
2021/03/06 08:31:41;;;;;;;;;;;23.60;29.50;;;;;;1610685;73;722;-58
2021/03/06 08:33:43;;;;;;;;;;;23.80;28.30;;;;;;1606926;73;838;-59
2021/03/06 08:35:45;;;;;;;;;;;23.80;27.10;;;;;;1613661;73;735;-57
2021/03/06 08:37:47;;;;;;;;;;;23.90;26.30;;;;;;1610573;73;767;-56
2021/03/06 08:39:53;;;;;;;;;;;23.90;25.70;;;;;;1611308;73;1151;-56
2021/03/06 08:41:55;;;;;;;;;;;23.90;24.90;;;;;;1611943;73;1014;-57
2021/03/06 08:43:57;;;;;;;;;;;23.90;24.70;;;;;;1607986;73;731;-55
2021/03/06 08:45:59;;;;;;;;;;;23.90;24.90;;;;;;1595480;73;1926;-58
2021/03/06 08:48:01;;;;;;;;;;;23.90;24.20;;;;;;1592305;73;697;-58
2021/03/06 08:50:05;;;;;;;;;;;23.90;24.40;;;;;;1606779;73;1080;-56
2021/03/06 08:52:07;;;;;;;;;;;23.90;23.40;;;;;;1593522;73;801;-57
2021/03/06 08:54:09;;;;;;;;;;;23.90;24.10;;;;;;1599034;73;721;-58
2021/03/06 08:56:11;;;;;;;;;;;23.80;23.90;;;;;;1601355;73;744;-59
2021/03/06 08:58:13;;;;;;;;;;;23.80;22.90;;;;;;1607182;73;748;-58
2021/03/06 09:00:20;;;;;;;;;;;23.90;23.60;;;;;;1613649;73;1119;-58
2021/03/06 09:02:27;;;;;;;;;;;23.90;24.10;;;;;;1594981;73;692;-56
2021/03/06 09:04:31;;;;;;;;;;;23.80;23.70;;;;;;1609943;73;1943;-56
2021/03/06 09:06:40;;;;;;;;;;;23.90;23.50;;;;;;1599841;73;798;-57
2021/03/06 09:08:42;;;;;;;;;;;23.80;23.30;;;;;;1593796;73;887;-57
2021/03/06 09:10:44;;;;;;;;;;;23.80;23.40;;;;;;1605722;73;1108;-58
2021/03/06 09:12:46;;;;;;;;;;;23.80;23.70;;;;;;1608800;73;773;-57
2021/03/06 09:14:48;;;;;;;;;;;23.80;23.50;;;;;;1593730;73;733;-58
2021/03/06 09:16:50;;;;;;;;;;;23.70;23.30;;;;;;1595767;73;773;-57
2021/03/06 09:18:52;;;;;;;;;;;23.70;23.40;;;;;;1610663;73;814;-56
2021/03/06 09:20:55;;;;;;;;;;;23.70;23.60;;;;;;1589615;73;1027;-58
2021/03/06 09:22:57;;;;;;;;;;;23.70;23.50;;;;;;1599039;73;715;-58
2021/03/06 09:24:59;;;;;;;;;;;23.60;23.60;;;;;;1614604;73;1908;-56
2021/03/06 09:27:01;;;;;;;;;;;23.50;23.50;;;;;;1597673;73;692;-57
2021/03/06 09:29:03;;;;;;;;;;;23.50;23.40;;;;;;1604018;73;1186;-57
2021/03/06 09:31:06;;;;;;;;;;;23.50;23.60;;;;;;1597078;73;739;-58
2021/03/06 09:33:10;;;;;;;;;;;23.50;23.40;;;;;;1600919;73;1248;-56
2021/03/06 09:35:12;;;;;;;;;;;23.50;23.80;;;;;;1599851;73;1663;-57
2021/03/06 09:37:16;;;;;;;;;;;23.10;22.30;;;;;;1607026;73;708;-57
2021/03/06 09:39:18;;;;;;;;;;;23.00;23.20;;;;;;1600801;73;1442;-58
2021/03/06 09:41:20;;;;;;;;;;;23.10;23.50;;;;;;1570377;74;1043;-58
2021/03/06 09:43:25;;;;;;;;;;;23.10;23.50;;;;;;1595059;73;769;-59
2021/03/06 09:45:27;;;;;;;;;;;23.00;23.30;;;;;;1604465;73;1943;-58
2021/03/06 09:47:29;;;;;;;;;;;23.10;23.50;;;;;;1604696;73;754;-58
2021/03/06 09:49:35;;;;;;;;;;;23.10;23.90;;;;;;1594795;72;1202;-56
2021/03/06 09:51:41;;;;;;;;;;;23.00;23.80;;;;;;1596493;73;720;-58
2021/03/06 09:53:43;;;;;;;;;;;23.00;24.30;;;;;;1600078;73;718;-58
2021/03/06 09:55:44;;;;;;;;;;;23.00;24.10;;;;;;1599633;73;746;-58
2021/03/06 09:57:46;;;;;;;;;;;22.90;24.00;;;;;;1603180;73;769;-58
2021/03/06 09:59:48;;;;;;;;;;;22.90;24.30;;;;;;1605400;73;1135;-58
2021/03/06 10:01:50;;;;;;;;;;;22.90;24.50;;;;;;1609933;73;690;-57
2021/03/06 10:03:52;;;;;;;;;;;23.00;24.50;;;;;;1607292;73;727;-58
2021/03/06 10:05:55;;;;;;;;;;;23.00;26.20;;;;;;1613715;73;1909;-56
2021/03/06 10:07:57;;;;;;;;;;;22.90;24.50;;;;;;1609781;73;672;-58
2021/03/06 10:09:59;;;;;;;;;;;23.00;24.60;;;;;;1600812;73;1084;-57
2021/03/06 10:12:05;;;;;;;;;;;22.90;24.40;;;;;;1614824;73;795;-58
2021/03/06 10:14:07;;;;;;;;;;;22.90;24.40;;;;;;1608954;73;727;-56
2021/03/06 10:16:09;;;;;;;;;;;22.90;24.30;;;;;;1612094;73;756;-57
2021/03/06 10:18:11;;;;;;;;;;;23.00;24.40;;;;;;1609687;73;788;-57
2021/03/06 10:20:13;;;;;;;;;;;23.00;24.60;;;;;;1605827;72;1122;-58
2021/03/06 10:22:15;;;;;;;;;;;22.90;26.60;;;;;;1606756;73;804;-59
2021/03/06 10:24:17;;;;;;;;;;;23.00;27.70;;;;;;1609783;73;712;-58
2021/03/06 10:26:22;;;;;;;;;;;23.10;28.20;;;;;;1610963;73;1936;-58
2021/03/06 10:28:24;;;;;;;;;;;23.10;28.40;;;;;;1602236;73;692;-58
2021/03/06 10:30:27;;;;;;;;;;;23.20;28.60;;;;;;1584454;74;1157;-58
2021/03/06 10:32:29;;;;;;;;;;;23.20;28.80;;;;;;1608451;73;667;-58
2021/03/06 10:34:32;;;;;;;;;;;23.30;29.10;;;;;;1585523;74;1066;-58
2021/03/06 10:36:34;;;;;;;;;;;23.40;29.20;;;;;;1598336;73;1782;-57
2021/03/06 10:38:36;;;;;;;;;;;23.40;29.30;;;;;;1602852;73;820;-58
2021/03/06 10:40:50;;;;;;;;;;;23.50;29.60;;;;;;1607457;73;1142;-59
2021/03/06 10:42:52;;;;;;;;;;;23.40;29.80;;;;;;1606061;73;768;-57
2021/03/06 10:44:54;;;;;;;;;;;23.50;30.00;;;;;;1607936;73;1940;-58
2021/03/06 10:46:59;;;;;;;;;;;23.60;30.00;;;;;;1601192;73;810;-58
2021/03/06 10:49:01;;;;;;;;;;;23.50;30.10;;;;;;1602041;72;1141;-58
2021/03/06 10:51:03;;;;;;;;;;;23.50;30.20;;;;;;1613383;73;797;-58
2021/03/06 10:53:21;;;;;;;;;;;23.60;30.30;;;;;;1604581;73;745;-59
2021/03/06 10:55:35;;;;;;;;;;;23.60;30.00;;;;;;1595143;73;735;-58
2021/03/06 10:57:36;;;;;;;;;;;23.60;31.60;;;;;;1605401;73;711;-58
2021/03/06 10:59:38;;;;;;;;;;;23.60;31.80;;;;;;1580119;74;1284;-58
2021/03/06 11:01:53;;;;;;;;;;;23.60;31.70;;;;;;1601508;73;713;-60
2021/03/06 11:03:55;;;;;;;;;;;23.60;32.10;;;;;;1603224;73;634;-59
2021/03/06 11:06:00;;;;;;;;;;;23.60;31.90;;;;;;1595318;73;1930;-58
2021/03/06 11:08:12;;;;;;;;;;;23.60;32.20;;;;;;1583741;73;783;-56
2021/03/06 11:10:14;;;;;;;;;;;23.70;32.10;;;;;;1600081;73;1153;-59
2021/03/06 11:12:20;;;;;;;;;;;23.70;32.10;;;;;;1594120;73;739;-57
2021/03/06 11:14:26;;;;;;;;;;;23.70;31.80;;;;;;1602866;73;740;-57
2021/03/06 11:16:37;;;;;;;;;;;23.70;31.70;;;;;;1610666;73;697;-59
2021/03/06 11:18:40;;;;;;;;;;;23.70;31.20;;;;;;1613082;73;753;-59
2021/03/06 11:20:42;;;;;;;;;;;23.50;30.50;;;;;;1603716;73;1072;-59
2021/03/06 11:22:43;;;;;;;;;;;23.60;31.00;;;;;;1610469;73;784;-59
2021/03/06 11:24:45;;;;;;;;;;;23.60;30.90;;;;;;1612695;73;896;-59
2021/03/06 11:26:47;;;;;;;;;;;23.50;31.00;;;;;;1604531;73;1949;-58
2021/03/06 11:28:49;;;;;;;;;;;23.60;31.00;;;;;;1613378;73;700;-57
2021/03/06 11:30:51;;;;;;;;;;;23.60;30.90;;;;;;1610048;73;1158;-58
2021/03/06 11:32:53;;;;;;;;;;;23.50;31.00;;;;;;1608395;73;780;-59
2021/03/06 11:34:55;;;;;;;;;;;23.60;30.90;;;;;;1609443;73;719;-59
2021/03/06 11:36:56;;;;;;;;;;;23.60;30.80;;;;;;1608650;73;732;-59
2021/03/06 11:38:58;;;;;;;;;;;23.60;30.80;;;;;;1611839;73;1134;-58
2021/03/06 11:41:00;;;;;;;;;;;23.60;30.70;;;;;;1613209;73;808;-59
2021/03/06 11:43:02;;;;;;;;;;;23.60;30.80;;;;;;1604508;73;751;-59
2021/03/06 11:45:05;;;;;;;;;;;23.50;30.70;;;;;;1609551;73;1943;-55
2021/03/06 11:47:07;;;;;;;;;;;23.50;30.70;;;;;;1607211;72;647;-59
2021/03/06 11:49:09;;;;;;;;;;;23.50;30.70;;;;;;1609020;72;1104;-59
2021/03/06 11:51:11;;;;;;;;;;;23.50;30.70;;;;;;1610445;73;778;-59
2021/03/06 11:53:13;;;;;;;;;;;23.50;30.50;;;;;;1612607;73;664;-58
2021/03/06 11:55:15;;;;;;;;;;;23.50;30.50;;;;;;1613830;73;719;-58
2021/03/06 11:57:17;;;;;;;;;;;23.50;30.30;;;;;;1613027;73;721;-56
2021/03/06 11:59:19;;;;;;;;;;;23.50;30.10;;;;;;1613921;72;1136;-56
2021/03/06 12:01:20;;;;;;;;;;;23.50;30.20;;;;;;1589029;73;744;-59
2021/03/06 12:03:22;;;;;;;;;;;23.50;30.10;;;;;;1596851;72;750;-56
2021/03/06 12:05:24;;;;;;;;;;;23.40;29.90;;;;;;1597555;73;1948;-56
2021/03/06 12:07:26;;;;;;;;;;;23.50;30.00;;;;;;1597188;73;821;-58
2021/03/06 12:09:28;;;;;;;;;;;23.40;29.80;;;;;;1593197;73;1128;-58
2021/03/06 12:11:30;;;;;;;;;;;23.40;29.80;;;;;;1599918;73;700;-58
2021/03/06 12:13:32;;;;;;;;;;;23.40;29.70;;;;;;1601623;73;739;-56